createdAt,value
2018-02-16T00:02:27.319Z,7.00
2018-02-16T00:05:17.298Z,7.01
2018-02-16T00:08:06.362Z,7.04
2018-02-16T00:10:56.690Z,6.99
2018-02-16T00:14:05.986Z,7.06
2018-02-16T00:16:37.413Z,7.11
2018-02-16T00:19:07.436Z,7.02
2018-02-16T00:21:58.369Z,7.03
2018-02-16T00:24:48.992Z,7.06
2018-02-16T00:27:38.141Z,7.07
2018-02-16T00:30:27.651Z,7.02
2018-02-16T00:33:36.838Z,7.09
2018-02-16T00:36:47.048Z,7.12
2018-02-16T00:39:56.332Z,7.16
2018-02-16T00:42:27.284Z,7.20
2018-02-16T00:45:16.996Z,7.20
2018-02-16T00:47:46.563Z,7.23
2018-02-16T00:50:15.778Z,7.29
2018-02-16T00:53:05.268Z,7.29
2018-02-16T00:55:35.040Z,7.33
2018-02-16T00:58:44.111Z,7.32
2018-02-16T01:01:13.878Z,7.36
2018-02-16T01:03:43.240Z,7.40
2018-02-16T01:06:12.508Z,7.41
2018-02-16T01:08:42.096Z,7.42
2018-02-16T01:11:11.633Z,7.40
2018-02-16T01:13:42.407Z,7.45
2018-02-16T01:16:12.826Z,7.45
2018-02-16T01:18:42.198Z,7.37
2018-02-16T01:21:11.420Z,7.32
2018-02-16T01:23:41.941Z,7.31
2018-02-16T01:26:11.149Z,7.28
2018-02-16T01:28:40.372Z,7.34
2018-02-16T01:31:10.634Z,7.33
2018-02-16T01:33:39.854Z,7.35
2018-02-16T01:36:09.066Z,7.32
2018-02-16T01:38:38.586Z,7.33
2018-02-16T01:41:08.773Z,7.31
2018-02-16T01:43:37.979Z,7.35
2018-02-16T01:46:09.085Z,7.33
2018-02-16T01:48:38.283Z,7.36
2018-02-16T01:51:08.718Z,7.39
2018-02-16T01:53:38.225Z,7.34
2018-02-16T01:56:07.542Z,7.34
2018-02-16T01:58:36.781Z,7.35
2018-02-16T02:01:07.171Z,7.37
2018-02-16T02:03:36.378Z,7.36
2018-02-16T02:06:09.439Z,7.36
2018-02-16T02:08:38.816Z,7.34
2018-02-16T02:11:08.064Z,7.32
2018-02-16T02:13:37.611Z,7.32
2018-02-16T02:16:07.819Z,7.32
2018-02-16T02:18:37.036Z,7.34
2018-02-16T02:21:06.864Z,7.34
2018-02-16T02:23:36.475Z,7.31
2018-02-16T02:26:07.594Z,7.32
2018-02-16T02:28:37.258Z,7.29
2018-02-16T02:31:08.838Z,7.34
2018-02-16T02:33:38.056Z,7.36
2018-02-16T02:36:08.301Z,7.38
2018-02-16T02:38:37.576Z,7.34
2018-02-16T02:41:06.865Z,7.36
2018-02-16T02:43:36.390Z,7.38
2018-02-16T02:46:07.203Z,7.38
2018-02-16T02:48:36.401Z,7.40
2018-02-16T02:51:06.127Z,7.46
2018-02-16T02:53:35.345Z,7.48
2018-02-16T02:56:07.059Z,7.50
2018-02-16T02:58:36.602Z,7.50
2018-02-16T03:01:06.277Z,7.46
2018-02-16T03:03:35.488Z,7.46
2018-02-16T03:06:05.821Z,7.50
2018-02-16T03:08:35.512Z,7.54
2018-02-16T03:11:06.551Z,7.40
2018-02-16T03:13:36.085Z,7.45
2018-02-16T03:16:06.183Z,7.49
2018-02-16T03:18:35.459Z,7.48
2018-02-16T03:21:06.734Z,7.45
2018-02-16T03:23:36.355Z,7.37
2018-02-16T03:26:06.488Z,7.34
2018-02-16T03:28:35.987Z,7.35
2018-02-16T03:31:06.493Z,7.36
2018-02-16T03:33:35.794Z,7.39
2018-02-16T03:36:06.836Z,7.41
2018-02-16T03:38:36.802Z,7.39
2018-02-16T03:41:06.327Z,7.42
2018-02-16T03:43:35.555Z,7.42
2018-02-16T03:46:06.929Z,7.43
2018-02-16T03:48:36.171Z,7.25
2018-02-16T03:51:06.727Z,7.27
2018-02-16T03:53:36.033Z,7.28
2018-02-16T03:56:06.643Z,7.23
2018-02-16T03:58:36.908Z,7.17
2018-02-16T04:01:09.009Z,7.15
2018-02-16T04:03:38.222Z,7.12
2018-02-16T04:06:07.778Z,7.19
2018-02-16T04:08:37.001Z,7.21
2018-02-16T04:11:06.355Z,7.14
2018-02-16T04:13:35.862Z,7.12
2018-02-16T04:16:06.674Z,7.10
2018-02-16T04:18:35.909Z,7.06
2018-02-16T04:21:07.009Z,7.06
2018-02-16T04:23:36.250Z,7.08
2018-02-16T04:26:06.433Z,7.06
2018-02-16T04:28:35.979Z,7.11
2018-02-16T04:31:06.215Z,7.09
2018-02-16T04:33:35.784Z,7.15
2018-02-16T04:36:09.985Z,7.12
2018-02-16T04:38:39.178Z,7.17
2018-02-16T04:41:09.396Z,7.21
2018-02-16T04:43:38.908Z,7.19
2018-02-16T04:46:08.187Z,7.22
2018-02-16T04:48:37.423Z,7.19
2018-02-16T04:51:07.102Z,7.20
2018-02-16T04:53:36.345Z,7.23
2018-02-16T04:56:09.767Z,7.26
2018-02-16T04:58:39.335Z,7.25
2018-02-16T05:01:09.710Z,7.26
2018-02-16T05:03:38.951Z,7.25
2018-02-16T05:06:08.245Z,7.25
2018-02-16T05:08:38.330Z,7.24
2018-02-16T05:11:08.737Z,7.23
2018-02-16T05:13:39.238Z,7.24
2018-02-16T05:16:08.649Z,7.25
2018-02-16T05:18:38.473Z,7.32
2018-02-16T05:21:09.040Z,7.24
2018-02-16T05:23:38.449Z,7.27
2018-02-16T05:26:07.676Z,7.26
2018-02-16T05:28:37.210Z,7.23
2018-02-16T05:31:06.718Z,7.28
2018-02-16T05:33:36.755Z,7.24
2018-02-16T05:36:09.874Z,7.23
2018-02-16T05:38:39.098Z,7.18
2018-02-16T05:41:08.995Z,7.08
2018-02-16T05:43:38.896Z,7.03
2018-02-16T05:46:08.208Z,7.05
2018-02-16T05:48:37.730Z,7.08
2018-02-16T05:51:07.054Z,7.08
2018-02-16T05:53:36.261Z,7.08
2018-02-16T05:56:06.960Z,7.06
2018-02-16T05:58:36.265Z,7.08
2018-02-16T06:01:06.385Z,7.04
2018-02-16T06:03:36.195Z,7.04
2018-02-16T06:06:06.720Z,7.00
2018-02-16T06:08:35.914Z,6.97
2018-02-16T06:11:06.715Z,7.01
2018-02-16T06:13:35.953Z,6.99
2018-02-16T06:16:07.502Z,6.97
2018-02-16T06:18:37.079Z,6.94
2018-02-16T06:21:07.869Z,6.94
2018-02-16T06:23:37.146Z,6.88
2018-02-16T06:26:07.707Z,6.90
2018-02-16T06:28:36.979Z,6.89
2018-02-16T06:31:06.456Z,6.82
2018-02-16T06:33:36.078Z,6.78
2018-02-16T06:36:07.467Z,6.80
2018-02-16T06:38:37.089Z,6.81
2018-02-16T06:41:06.868Z,6.80
2018-02-16T06:43:36.201Z,6.82
2018-02-16T06:46:07.237Z,6.82
2018-02-16T06:48:36.761Z,6.80
2018-02-16T06:51:06.392Z,6.79
2018-02-16T06:53:35.637Z,6.82
2018-02-16T06:56:06.282Z,6.81
2018-02-16T06:58:35.523Z,6.81
2018-02-16T07:01:08.123Z,6.84
2018-02-16T07:03:37.681Z,6.89
2018-02-16T07:06:06.995Z,6.91
2018-02-16T07:08:36.435Z,6.95
2018-02-16T07:11:06.558Z,6.96
2018-02-16T07:13:35.793Z,6.97
2018-02-16T07:16:07.123Z,6.98
2018-02-16T07:18:37.130Z,7.03
2018-02-16T07:21:07.125Z,7.12
2018-02-16T07:23:36.409Z,7.22
2018-02-16T07:26:07.015Z,7.34
2018-02-16T07:28:36.344Z,7.45
2018-02-16T07:31:06.460Z,7.54
2018-02-16T07:33:37.122Z,7.55
2018-02-16T07:36:06.711Z,7.61
2018-02-16T07:38:36.009Z,7.63
2018-02-16T07:41:06.138Z,7.70
2018-02-16T07:43:35.399Z,7.68
2018-02-16T07:46:05.933Z,7.82
2018-02-16T07:48:35.506Z,7.81
2018-02-16T07:51:06.540Z,7.68
2018-02-16T07:53:36.163Z,7.82
2018-02-16T07:56:07.548Z,8.72
2018-02-16T07:58:36.826Z,9.45
2018-02-16T08:01:07.248Z,10.12
2018-02-16T08:03:36.498Z,10.81
2018-02-16T08:06:06.579Z,11.39
2018-02-16T08:08:35.878Z,11.93
2018-02-16T08:11:05.850Z,12.39
2018-02-16T08:13:35.249Z,12.58
2018-02-16T08:16:06.074Z,13.30
2018-02-16T08:18:35.588Z,13.59
2018-02-16T08:21:06.349Z,13.39
2018-02-16T08:23:35.619Z,12.36
2018-02-16T08:26:06.650Z,11.56
2018-02-16T08:28:35.918Z,10.90
2018-02-16T08:31:05.676Z,10.47
2018-02-16T08:33:35.235Z,10.13
2018-02-16T08:36:06.217Z,9.82
2018-02-16T08:38:35.449Z,9.56
2018-02-16T08:41:06.066Z,9.31
2018-02-16T08:43:35.306Z,9.37
2018-02-16T08:46:06.196Z,9.72
2018-02-16T08:48:35.711Z,9.78
2018-02-16T08:51:05.835Z,9.77
2018-02-16T08:53:35.117Z,9.74
2018-02-16T08:56:06.448Z,9.98
2018-02-16T08:58:35.933Z,10.42
2018-02-16T09:01:06.487Z,10.94
2018-02-16T09:03:36.169Z,11.61
2018-02-16T09:06:06.467Z,11.86
2018-02-16T09:08:35.714Z,11.97
2018-02-16T09:11:05.901Z,12.14
2018-02-16T09:13:35.132Z,12.13
2018-02-16T09:16:06.606Z,11.90
2018-02-16T09:18:36.329Z,11.48
2018-02-16T09:21:06.926Z,11.03
2018-02-16T09:23:36.154Z,10.85
2018-02-16T09:26:07.626Z,10.74
2018-02-16T09:28:36.970Z,10.67
2018-02-16T09:31:06.843Z,10.50
2018-02-16T09:33:37.638Z,10.49
2018-02-16T09:36:11.964Z,10.77
2018-02-16T09:38:42.933Z,10.84
2018-02-16T09:41:12.896Z,10.72
2018-02-16T09:43:42.137Z,10.55
2018-02-16T09:46:11.770Z,10.46
2018-02-16T09:48:41.035Z,10.38
2018-02-16T09:51:10.294Z,9.96
2018-02-16T09:53:39.881Z,9.98
2018-02-16T09:56:13.843Z,9.99
2018-02-16T09:58:43.126Z,9.95
2018-02-16T10:01:12.673Z,9.89
2018-02-16T10:03:41.911Z,9.99
2018-02-16T10:06:11.182Z,10.09
2018-02-16T10:08:40.685Z,10.47
2018-02-16T10:11:10.121Z,10.68
2018-02-16T10:13:39.395Z,10.82
2018-02-16T10:16:09.312Z,11.31
2018-02-16T10:18:38.530Z,11.52
2018-02-16T10:21:08.139Z,11.60
2018-02-16T10:23:37.710Z,11.74
2018-02-16T10:26:07.008Z,11.72
2018-02-16T10:28:36.273Z,11.64
2018-02-16T10:31:07.621Z,11.53
2018-02-16T10:33:36.841Z,11.78
2018-02-16T10:36:07.207Z,12.38
2018-02-16T10:38:36.754Z,12.99
2018-02-16T10:41:07.024Z,13.49
2018-02-16T10:43:37.067Z,13.89
2018-02-16T10:46:07.492Z,13.61
2018-02-16T10:48:36.778Z,14.18
2018-02-16T10:51:06.160Z,14.62
2018-02-16T10:53:37.758Z,14.97
2018-02-16T10:56:07.069Z,15.04
2018-02-16T10:58:36.276Z,15.31
2018-02-16T11:01:11.614Z,15.62
2018-02-16T11:03:41.922Z,15.51
2018-02-16T11:06:13.513Z,15.16
2018-02-16T11:08:46.799Z,15.23
2018-02-16T11:11:17.041Z,14.92
2018-02-16T11:13:46.584Z,14.79
2018-02-16T11:16:16.078Z,14.25
2018-02-16T11:18:45.444Z,14.13
2018-02-16T11:21:16.498Z,14.61
2018-02-16T11:23:46.836Z,15.10
2018-02-16T11:26:16.316Z,15.18
2018-02-16T11:28:46.041Z,14.95
2018-02-16T11:31:15.290Z,14.63
2018-02-16T11:33:45.870Z,14.16
2018-02-16T11:36:16.489Z,14.31
2018-02-16T11:38:45.940Z,14.86
2018-02-16T11:41:15.445Z,14.93
2018-02-16T11:43:46.833Z,14.99
2018-02-16T11:46:18.711Z,14.95
2018-02-16T11:48:48.215Z,15.21
2018-02-16T11:51:17.844Z,15.52
2018-02-16T11:53:47.119Z,15.49
2018-02-16T11:56:16.309Z,15.28
2018-02-16T11:58:46.066Z,15.00
2018-02-16T12:01:15.541Z,15.27
2018-02-16T12:03:45.128Z,15.77
2018-02-16T12:06:17.035Z,16.33
2018-02-16T12:08:47.256Z,16.73
2018-02-16T12:11:17.027Z,16.65
2018-02-16T12:13:47.656Z,16.93
2018-02-16T12:16:17.500Z,17.30
2018-02-16T12:18:46.967Z,17.45
2018-02-16T12:21:16.803Z,17.17
2018-02-16T12:23:46.058Z,17.29
2018-02-16T12:26:15.307Z,17.65
2018-02-16T12:28:44.816Z,17.96
2018-02-16T12:31:15.194Z,17.95
2018-02-16T12:33:44.518Z,18.33
2018-02-16T12:36:14.171Z,18.64
2018-02-16T12:38:43.826Z,18.47
2018-02-16T12:41:13.116Z,18.65
2018-02-16T12:43:43.101Z,18.61
2018-02-16T12:46:12.422Z,18.14
2018-02-16T12:48:41.996Z,18.35
2018-02-16T12:51:12.507Z,17.97
2018-02-16T12:53:41.787Z,17.75
2018-02-16T12:56:11.060Z,17.34
2018-02-16T12:58:41.841Z,17.12
2018-02-16T13:01:11.324Z,16.31
2018-02-16T13:03:40.552Z,16.00
2018-02-16T13:06:10.940Z,15.30
2018-02-16T13:08:40.390Z,14.75
2018-02-16T13:11:11.644Z,14.74
2018-02-16T13:13:41.281Z,14.60
2018-02-16T13:16:10.558Z,14.77
2018-02-16T13:18:39.774Z,15.46
2018-02-16T13:21:09.516Z,16.01
2018-02-16T13:23:38.881Z,16.09
2018-02-16T13:26:09.203Z,16.36
2018-02-16T13:28:38.742Z,16.18
2018-02-16T13:31:09.273Z,15.97
2018-02-16T13:33:39.185Z,15.46
2018-02-16T13:36:09.618Z,15.65
2018-02-16T13:38:40.007Z,15.93
2018-02-16T13:41:09.569Z,16.63
2018-02-16T13:43:39.171Z,16.92
2018-02-16T13:46:08.534Z,17.62
2018-02-16T13:48:38.016Z,18.05
2018-02-16T13:51:07.744Z,18.43
2018-02-16T13:53:37.047Z,18.69
2018-02-16T13:56:07.250Z,18.28
2018-02-16T13:58:36.920Z,18.26
2018-02-16T14:01:07.634Z,18.30
2018-02-16T14:03:36.963Z,18.58
2018-02-16T14:06:07.681Z,18.38
2018-02-16T14:08:36.932Z,17.77
2018-02-16T14:11:06.189Z,17.32
2018-02-16T14:13:36.851Z,16.92
2018-02-16T14:16:08.205Z,16.20
2018-02-16T14:18:38.269Z,15.89
2018-02-16T14:21:08.743Z,15.70
2018-02-16T14:23:38.006Z,15.55
2018-02-16T14:26:07.482Z,15.28
2018-02-16T14:28:37.275Z,15.34
2018-02-16T14:31:06.617Z,15.32
2018-02-16T14:33:35.887Z,15.41
2018-02-16T14:36:06.489Z,15.22
2018-02-16T14:38:36.192Z,14.81
2018-02-16T14:41:07.676Z,14.75
2018-02-16T14:43:38.796Z,14.22
2018-02-16T14:46:09.279Z,14.15
2018-02-16T14:48:39.311Z,14.17
2018-02-16T14:51:10.058Z,14.23
2018-02-16T14:53:40.040Z,14.27
2018-02-16T14:56:09.387Z,13.95
2018-02-16T14:58:38.984Z,13.99
2018-02-16T15:01:08.960Z,13.97
2018-02-16T15:03:38.183Z,13.82
2018-02-16T15:06:09.068Z,13.90
2018-02-16T15:08:38.967Z,13.76
2018-02-16T15:11:10.043Z,13.72
2018-02-16T15:13:39.606Z,13.58
2018-02-16T15:16:08.899Z,13.54
2018-02-16T15:18:38.194Z,13.61
2018-02-16T15:21:07.860Z,13.52
2018-02-16T15:23:37.230Z,13.49
2018-02-16T15:26:06.476Z,13.45
2018-02-16T15:28:36.566Z,13.41
2018-02-16T15:31:07.836Z,13.37
2018-02-16T15:33:37.160Z,13.30
2018-02-16T15:36:07.610Z,13.29
2018-02-16T15:38:36.950Z,13.17
2018-02-16T15:41:07.062Z,13.22
2018-02-16T15:46:36.085Z,13.42
2018-02-16T15:49:06.300Z,13.41
2018-02-16T15:51:35.623Z,13.66
2018-02-16T15:54:06.616Z,13.78
2018-02-16T15:56:36.505Z,13.97
2018-02-16T15:59:09.602Z,14.00
2018-02-16T16:01:38.843Z,14.02
2018-02-16T16:04:08.398Z,13.88
2018-02-16T16:06:37.793Z,13.69
2018-02-16T16:09:07.262Z,13.38
2018-02-16T16:11:36.778Z,13.25
2018-02-16T16:14:08.883Z,12.84
2018-02-16T16:16:38.154Z,12.76
2018-02-16T16:19:07.699Z,12.63
2018-02-16T16:21:36.950Z,12.34
2018-02-16T16:24:06.985Z,12.22
2018-02-16T16:26:36.552Z,12.11
2018-02-16T16:29:07.096Z,12.03
2018-02-16T16:31:36.421Z,11.91
2018-02-16T16:34:06.985Z,11.74
2018-02-16T16:36:36.272Z,11.71
2018-02-16T16:39:08.140Z,11.68
2018-02-16T16:41:40.121Z,11.61
2018-02-16T16:44:10.613Z,11.49
2018-02-16T16:46:40.430Z,11.41
2018-02-16T16:49:10.275Z,11.29
2018-02-16T16:51:39.705Z,11.21
2018-02-16T16:54:10.171Z,11.16
2018-02-16T16:56:39.755Z,11.13
2018-02-16T16:59:09.066Z,11.08
2018-02-16T17:01:38.311Z,10.97
2018-02-16T17:04:08.430Z,10.92
2018-02-16T17:06:38.907Z,10.89
2018-02-16T17:09:08.440Z,10.86
2018-02-16T17:11:38.170Z,10.85
2018-02-16T17:14:07.698Z,10.86
2018-02-16T17:16:37.319Z,10.81
2018-02-16T17:19:09.362Z,10.79
2018-02-16T17:21:38.979Z,10.77
2018-02-16T17:24:09.212Z,10.71
2018-02-16T17:26:38.971Z,10.69
2018-02-16T17:29:09.719Z,10.62
2018-02-16T17:31:38.951Z,10.62
2018-02-16T17:34:09.514Z,10.59
2018-02-16T17:36:39.210Z,10.51
2018-02-16T17:39:08.502Z,10.49
2018-02-16T17:41:38.179Z,10.45
2018-02-16T17:44:07.808Z,10.44
2018-02-16T17:46:37.107Z,10.42
2018-02-16T17:49:07.046Z,10.39
2018-02-16T17:51:36.930Z,10.36
2018-02-16T17:54:08.044Z,10.35
2018-02-16T17:56:38.509Z,10.33
2018-02-16T17:59:09.617Z,10.33
2018-02-16T18:01:39.213Z,10.34
2018-02-16T18:04:08.687Z,10.30
2018-02-16T18:06:38.416Z,10.27
2018-02-16T18:09:08.171Z,10.19
2018-02-16T18:11:37.707Z,10.16
2018-02-16T18:15:10.502Z,10.10
2018-02-16T18:17:40.091Z,10.01
2018-02-16T18:20:10.293Z,10.03
2018-02-16T18:22:39.839Z,9.96
2018-02-16T18:25:09.213Z,9.92
2018-02-16T18:27:38.614Z,9.94
2018-02-16T18:30:08.926Z,9.84
2018-02-16T18:32:38.163Z,9.90
2018-02-16T18:35:07.633Z,9.87
2018-02-16T18:37:37.161Z,9.83
2018-02-16T18:40:09.198Z,9.82
2018-02-16T18:42:38.416Z,9.77
2018-02-16T18:45:08.127Z,9.72
2018-02-16T18:47:37.343Z,9.69
2018-02-16T18:50:09.023Z,9.57
2018-02-16T18:52:38.999Z,9.57
2018-02-16T18:55:08.696Z,9.49
2018-02-16T18:57:40.207Z,9.46
2018-02-16T19:00:11.152Z,9.41
2018-02-16T19:02:40.421Z,9.36
2018-02-16T19:05:11.275Z,9.12
2018-02-16T19:07:41.399Z,9.13
2018-02-16T19:10:10.755Z,9.10
2018-02-16T19:12:40.646Z,9.06
2018-02-16T19:15:10.688Z,9.07
2018-02-16T19:17:40.348Z,9.04
2018-02-16T19:23:04.120Z,9.06
2018-02-16T19:25:37.116Z,9.02
2018-02-16T19:28:09.630Z,9.04
2018-02-16T19:30:39.126Z,9.07
2018-02-16T19:33:08.588Z,9.12
2018-02-16T19:35:38.207Z,9.11
2018-02-16T19:38:13.755Z,9.06
2018-02-16T19:40:43.502Z,9.03
2018-02-16T19:43:12.853Z,8.96
2018-02-16T19:45:42.183Z,8.93
2018-02-16T19:48:12.074Z,8.86
2018-02-16T19:50:41.301Z,8.92
2018-02-16T19:53:10.879Z,8.92
2018-02-16T19:55:40.680Z,8.92
2018-02-16T19:58:27.042Z,8.92
2018-02-16T20:01:08.337Z,8.91
2018-02-16T20:03:38.840Z,8.94
2018-02-16T20:06:08.513Z,8.90
2018-02-16T20:08:38.079Z,8.87
2018-02-16T20:11:07.506Z,8.79
2018-02-16T20:13:36.721Z,8.74
2018-02-16T20:16:10.773Z,8.72
2018-02-16T20:18:40.046Z,8.74
2018-02-16T20:21:10.073Z,8.69
2018-02-16T20:23:39.716Z,8.68
2018-02-16T20:26:09.081Z,8.67
2018-02-16T20:28:38.302Z,8.65
2018-02-16T20:31:08.901Z,8.58
2018-02-16T20:33:38.686Z,8.60
2018-02-16T20:36:08.170Z,8.57
2018-02-16T20:38:37.832Z,8.53
2018-02-16T20:41:08.256Z,8.49
2018-02-16T20:43:37.778Z,8.46
2018-02-16T20:46:08.435Z,8.47
2018-02-16T20:48:37.832Z,8.42
2018-02-16T20:51:07.815Z,8.35
2018-02-16T20:53:38.261Z,8.35
2018-02-16T20:56:07.549Z,8.29
2018-02-16T20:58:36.861Z,8.26
2018-02-16T21:01:06.842Z,8.21
2018-02-16T21:03:36.102Z,8.15
2018-02-16T21:06:12.092Z,8.11
2018-02-16T21:08:44.375Z,8.10
2018-02-16T21:11:14.012Z,7.99
2018-02-16T21:13:43.555Z,8.00
2018-02-16T21:16:13.282Z,8.00
2018-02-16T21:18:42.512Z,7.95
2018-02-16T21:21:13.056Z,7.87
2018-02-16T21:26:28.094Z,7.80
2018-02-16T21:29:04.664Z,7.75
2018-02-16T21:31:34.136Z,7.76
2018-02-16T21:34:08.227Z,7.71
2018-02-16T21:36:38.751Z,7.68
2018-02-16T21:39:10.552Z,7.61
2018-02-16T21:41:40.180Z,7.60
2018-02-16T21:44:09.991Z,7.58
2018-02-16T21:46:39.784Z,7.55
2018-02-16T21:49:10.233Z,7.51
2018-02-16T21:51:39.471Z,7.49
2018-02-16T21:54:14.246Z,7.45
2018-02-16T21:56:44.901Z,7.35
2018-02-16T21:59:37.504Z,7.34
2018-02-16T22:02:12.066Z,7.29
2018-02-16T22:04:41.893Z,7.21
2018-02-16T22:07:13.562Z,7.20
2018-02-16T22:09:44.040Z,7.13
2018-02-16T22:12:13.849Z,7.11
2018-02-16T22:14:43.652Z,7.11
2018-02-16T22:17:13.651Z,7.01
2018-02-16T22:19:43.395Z,7.01
2018-02-16T22:22:19.075Z,7.05
2018-02-16T22:24:49.493Z,7.07
2018-02-16T22:27:31.378Z,7.10
2018-02-16T22:30:06.920Z,7.07
2018-02-16T22:32:38.859Z,7.02
2018-02-16T22:35:13.177Z,7.04
2018-02-16T22:37:42.563Z,7.09
2018-02-16T22:40:16.541Z,7.02
2018-02-16T22:42:46.230Z,6.99
2018-02-16T22:45:18.965Z,7.01
2018-02-16T22:47:48.627Z,7.05
2018-02-16T22:50:18.397Z,7.06
2018-02-16T22:52:47.743Z,7.07
2018-02-16T22:55:19.591Z,7.01
2018-02-16T22:57:50.188Z,7.04
2018-02-16T23:00:26.861Z,7.04
2018-02-16T23:03:03.630Z,7.00
2018-02-16T23:05:39.171Z,7.01
2018-02-16T23:08:13.440Z,6.98
2018-02-16T23:10:50.925Z,6.98
2018-02-16T23:13:22.848Z,6.90
2018-02-16T23:15:52.706Z,6.85
2018-02-16T23:18:28.935Z,6.82
2018-02-16T23:20:58.408Z,6.79
2018-02-16T23:23:30.074Z,6.80
2018-02-16T23:26:07.440Z,6.79
2018-02-16T23:28:38.878Z,6.80
2018-02-16T23:31:08.318Z,6.76
2018-02-16T23:33:37.562Z,6.71
2018-02-16T23:36:08.164Z,6.67
2018-02-16T23:38:37.981Z,6.63
2018-02-16T23:41:15.360Z,6.60
2018-02-16T23:43:45.017Z,6.62
2018-02-16T23:46:15.001Z,6.61
2018-02-16T23:49:00.867Z,6.59
2018-02-16T23:51:31.559Z,6.54
2018-02-16T23:54:02.669Z,6.46
2018-02-16T23:56:33.547Z,6.45
2018-02-16T23:59:04.258Z,6.37
